sensor_id;sensor_type;location;lat;lon;timestamp;temperature;humidity
4058;DHT22;2044;48.692;9.020;2023-06-26T00:00:03;16.40;99.90
4058;DHT22;2044;48.692;9.020;2023-06-26T00:02:30;16.30;99.90
4058;DHT22;2044;48.692;9.020;2023-06-26T00:04:58;16.20;99.90
4058;DHT22;2044;48.692;9.020;2023-06-26T00:09:54;16.20;99.90
4058;DHT22;2044;48.692;9.020;2023-06-26T00:12:21;16.10;99.90
4058;DHT22;2044;48.692;9.020;2023-06-26T00:14:49;16.20;99.90
4058;DHT22;2044;48.692;9.020;2023-06-26T00:19:42;16.10;99.90
4058;DHT22;2044;48.692;9.020;2023-06-26T00:22:09;16.00;99.90
4058;DHT22;2044;48.692;9.020;2023-06-26T00:27:03;16.00;99.90
4058;DHT22;2044;48.692;9.020;2023-06-26T00:31:59;15.90;99.90
4058;DHT22;2044;48.692;9.020;2023-06-26T00:36:53;15.90;99.90
4058;DHT22;2044;48.692;9.020;2023-06-26T00:39:20;15.80;99.90
4058;DHT22;2044;48.692;9.020;2023-06-26T00:41:46;15.80;99.90
4058;DHT22;2044;48.692;9.020;2023-06-26T00:44:13;15.70;99.90
4058;DHT22;2044;48.692;9.020;2023-06-26T00:46:40;15.90;99.90
4058;DHT22;2044;48.692;9.020;2023-06-26T00:49:08;15.80;99.90
4058;DHT22;2044;48.692;9.020;2023-06-26T00:54:02;15.80;99.90
4058;DHT22;2044;48.692;9.020;2023-06-26T00:56:30;15.80;99.90
4058;DHT22;2044;48.692;9.020;2023-06-26T00:58:57;15.60;99.90
4058;DHT22;2044;48.692;9.020;2023-06-26T01:01:24;15.50;99.90
4058;DHT22;2044;48.692;9.020;2023-06-26T01:03:52;15.50;99.90
4058;DHT22;2044;48.692;9.020;2023-06-26T01:06:23;15.40;99.90
4058;DHT22;2044;48.692;9.020;2023-06-26T01:08:50;15.50;99.90
4058;DHT22;2044;48.692;9.020;2023-06-26T01:11:18;15.60;99.90
4058;DHT22;2044;48.692;9.020;2023-06-26T01:13:45;15.50;99.90
4058;DHT22;2044;48.692;9.020;2023-06-26T01:16:12;15.50;99.90
4058;DHT22;2044;48.692;9.020;2023-06-26T01:18:40;15.30;99.90
4058;DHT22;2044;48.692;9.020;2023-06-26T01:21:09;15.40;99.90
4058;DHT22;2044;48.692;9.020;2023-06-26T01:23:39;15.40;99.90
4058;DHT22;2044;48.692;9.020;2023-06-26T01:26:15;15.30;99.90
4058;DHT22;2044;48.692;9.020;2023-06-26T01:28:43;15.30;99.90
4058;DHT22;2044;48.692;9.020;2023-06-26T01:31:11;15.20;99.90
4058;DHT22;2044;48.692;9.020;2023-06-26T01:33:39;15.30;99.90
4058;DHT22;2044;48.692;9.020;2023-06-26T01:36:06;15.20;99.90
4058;DHT22;2044;48.692;9.020;2023-06-26T01:38:33;15.20;99.90
4058;DHT22;2044;48.692;9.020;2023-06-26T01:41:01;15.20;99.90
4058;DHT22;2044;48.692;9.020;2023-06-26T01:43:34;15.10;99.90
4058;DHT22;2044;48.692;9.020;2023-06-26T01:46:05;15.10;99.90
4058;DHT22;2044;48.692;9.020;2023-06-26T01:48:37;15.00;99.90
4058;DHT22;2044;48.692;9.020;2023-06-26T01:51:06;14.90;99.90
4058;DHT22;2044;48.692;9.020;2023-06-26T01:53:37;14.90;99.90
4058;DHT22;2044;48.692;9.020;2023-06-26T01:56:08;14.80;99.90
4058;DHT22;2044;48.692;9.020;2023-06-26T02:01:08;14.70;99.90
4058;DHT22;2044;48.692;9.020;2023-06-26T02:06:01;14.50;99.90
4058;DHT22;2044;48.692;9.020;2023-06-26T02:08:28;14.60;99.90
4058;DHT22;2044;48.692;9.020;2023-06-26T02:13:22;14.40;99.90
4058;DHT22;2044;48.692;9.020;2023-06-26T02:15:50;14.40;99.90
4058;DHT22;2044;48.692;9.020;2023-06-26T02:18:16;14.40;99.90
4058;DHT22;2044;48.692;9.020;2023-06-26T02:20:43;14.30;99.90
4058;DHT22;2044;48.692;9.020;2023-06-26T02:23:10;14.40;99.90
4058;DHT22;2044;48.692;9.020;2023-06-26T02:25:38;14.50;99.90
4058;DHT22;2044;48.692;9.020;2023-06-26T02:28:04;14.40;99.90
4058;DHT22;2044;48.692;9.020;2023-06-26T02:32:59;14.30;99.90
4058;DHT22;2044;48.692;9.020;2023-06-26T02:35:26;14.20;99.90
4058;DHT22;2044;48.692;9.020;2023-06-26T02:40:20;14.30;99.90
4058;DHT22;2044;48.692;9.020;2023-06-26T02:42:50;14.30;99.90
4058;DHT22;2044;48.692;9.020;2023-06-26T02:45:17;14.20;99.90
4058;DHT22;2044;48.692;9.020;2023-06-26T02:52:39;14.20;99.90
4058;DHT22;2044;48.692;9.020;2023-06-26T02:55:06;14.40;99.90
4058;DHT22;2044;48.692;9.020;2023-06-26T02:57:33;14.60;99.90
4058;DHT22;2044;48.692;9.020;2023-06-26T03:02:27;14.70;99.90
4058;DHT22;2044;48.692;9.020;2023-06-26T03:04:53;14.80;99.90
4058;DHT22;2044;48.692;9.020;2023-06-26T03:07:21;14.80;99.90
4058;DHT22;2044;48.692;9.020;2023-06-26T03:09:48;14.60;99.90
4058;DHT22;2044;48.692;9.020;2023-06-26T03:12:15;14.70;99.90
4058;DHT22;2044;48.692;9.020;2023-06-26T03:14:41;14.60;99.90
4058;DHT22;2044;48.692;9.020;2023-06-26T03:17:08;14.50;99.90
4058;DHT22;2044;48.692;9.020;2023-06-26T03:19:35;14.50;99.90
4058;DHT22;2044;48.692;9.020;2023-06-26T03:22:01;14.60;99.90
4058;DHT22;2044;48.692;9.020;2023-06-26T03:24:30;14.60;99.90
4058;DHT22;2044;48.692;9.020;2023-06-26T03:29:24;14.90;99.90
4058;DHT22;2044;48.692;9.020;2023-06-26T03:31:50;14.80;99.90
4058;DHT22;2044;48.692;9.020;2023-06-26T03:39:12;14.80;99.90
4058;DHT22;2044;48.692;9.020;2023-06-26T03:41:40;14.80;99.90
4058;DHT22;2044;48.692;9.020;2023-06-26T03:44:07;14.80;99.90
4058;DHT22;2044;48.692;9.020;2023-06-26T03:46:33;14.90;99.90
4058;DHT22;2044;48.692;9.020;2023-06-26T03:49:00;15.50;99.90
4058;DHT22;2044;48.692;9.020;2023-06-26T03:53:54;16.40;99.90
4058;DHT22;2044;48.692;9.020;2023-06-26T03:56:21;16.90;99.90
4058;DHT22;2044;48.692;9.020;2023-06-26T04:03:43;18.10;99.90
4058;DHT22;2044;48.692;9.020;2023-06-26T04:08:37;18.40;99.90
4058;DHT22;2044;48.692;9.020;2023-06-26T04:11:03;19.10;99.90
4058;DHT22;2044;48.692;9.020;2023-06-26T04:13:30;19.80;99.90
4058;DHT22;2044;48.692;9.020;2023-06-26T04:15:58;20.60;99.90
4058;DHT22;2044;48.692;9.020;2023-06-26T04:18:25;21.10;99.90
4058;DHT22;2044;48.692;9.020;2023-06-26T04:21:06;21.30;99.90
4058;DHT22;2044;48.692;9.020;2023-06-26T04:23:33;21.70;99.90
4058;DHT22;2044;48.692;9.020;2023-06-26T04:28:28;22.70;99.90
4058;DHT22;2044;48.692;9.020;2023-06-26T04:30:55;23.30;99.90
4058;DHT22;2044;48.692;9.020;2023-06-26T04:33:24;23.80;99.90
4058;DHT22;2044;48.692;9.020;2023-06-26T04:38:19;24.90;99.90
4058;DHT22;2044;48.692;9.020;2023-06-26T04:40:46;25.40;99.90
4058;DHT22;2044;48.692;9.020;2023-06-26T04:43:12;25.80;99.90
4058;DHT22;2044;48.692;9.020;2023-06-26T04:48:06;26.80;99.90
4058;DHT22;2044;48.692;9.020;2023-06-26T04:50:35;26.90;99.90
4058;DHT22;2044;48.692;9.020;2023-06-26T04:53:02;26.90;99.90
4058;DHT22;2044;48.692;9.020;2023-06-26T04:55:29;25.40;99.90
4058;DHT22;2044;48.692;9.020;2023-06-26T05:00:23;26.60;99.90
4058;DHT22;2044;48.692;9.020;2023-06-26T05:02:50;27.80;99.90
4058;DHT22;2044;48.692;9.020;2023-06-26T05:05:24;28.30;99.90
4058;DHT22;2044;48.692;9.020;2023-06-26T05:07:54;28.40;99.90
4058;DHT22;2044;48.692;9.020;2023-06-26T05:10:21;28.60;99.90
4058;DHT22;2044;48.692;9.020;2023-06-26T05:12:48;29.10;99.90
4058;DHT22;2044;48.692;9.020;2023-06-26T05:15:14;28.40;99.90
4058;DHT22;2044;48.692;9.020;2023-06-26T05:17:41;26.80;99.90
4058;DHT22;2044;48.692;9.020;2023-06-26T05:20:09;26.70;99.90
4058;DHT22;2044;48.692;9.020;2023-06-26T05:22:37;25.70;99.90
4058;DHT22;2044;48.692;9.020;2023-06-26T05:25:08;25.80;99.90
4058;DHT22;2044;48.692;9.020;2023-06-26T05:27:35;25.50;99.90
4058;DHT22;2044;48.692;9.020;2023-06-26T05:30:03;25.60;99.90
4058;DHT22;2044;48.692;9.020;2023-06-26T05:32:30;25.70;99.90
4058;DHT22;2044;48.692;9.020;2023-06-26T05:35:02;25.40;99.90
4058;DHT22;2044;48.692;9.020;2023-06-26T05:37:29;25.80;99.90
4058;DHT22;2044;48.692;9.020;2023-06-26T05:39:57;26.40;99.90
4058;DHT22;2044;48.692;9.020;2023-06-26T05:42:26;26.30;99.90
4058;DHT22;2044;48.692;9.020;2023-06-26T05:44:53;26.30;99.90
4058;DHT22;2044;48.692;9.020;2023-06-26T05:47:20;25.60;99.90
4058;DHT22;2044;48.692;9.020;2023-06-26T05:49:47;25.60;99.90
4058;DHT22;2044;48.692;9.020;2023-06-26T05:52:14;26.20;99.90
4058;DHT22;2044;48.692;9.020;2023-06-26T05:54:41;27.10;99.90
4058;DHT22;2044;48.692;9.020;2023-06-26T05:57:09;27.20;99.90
4058;DHT22;2044;48.692;9.020;2023-06-26T05:59:40;27.00;99.90
4058;DHT22;2044;48.692;9.020;2023-06-26T06:02:07;27.70;99.90
4058;DHT22;2044;48.692;9.020;2023-06-26T06:04:33;28.70;99.90
4058;DHT22;2044;48.692;9.020;2023-06-26T06:09:27;28.60;99.90
4058;DHT22;2044;48.692;9.020;2023-06-26T06:14:21;29.60;99.90
4058;DHT22;2044;48.692;9.020;2023-06-26T06:16:49;29.20;99.90
4058;DHT22;2044;48.692;9.020;2023-06-26T06:19:16;29.30;99.90
4058;DHT22;2044;48.692;9.020;2023-06-26T06:21:42;29.70;99.90
4058;DHT22;2044;48.692;9.020;2023-06-26T06:24:09;30.30;99.90
4058;DHT22;2044;48.692;9.020;2023-06-26T06:29:03;29.70;99.90
4058;DHT22;2044;48.692;9.020;2023-06-26T06:31:30;30.30;99.90
4058;DHT22;2044;48.692;9.020;2023-06-26T06:33:58;29.30;99.90
4058;DHT22;2044;48.692;9.020;2023-06-26T06:36:24;29.50;99.90
4058;DHT22;2044;48.692;9.020;2023-06-26T06:41:19;30.60;99.90
4058;DHT22;2044;48.692;9.020;2023-06-26T06:43:46;30.60;99.90
4058;DHT22;2044;48.692;9.020;2023-06-26T06:46:13;30.50;99.90
4058;DHT22;2044;48.692;9.020;2023-06-26T06:48:40;30.10;99.90
4058;DHT22;2044;48.692;9.020;2023-06-26T06:51:08;29.40;99.90
4058;DHT22;2044;48.692;9.020;2023-06-26T06:58:29;29.50;99.90
4058;DHT22;2044;48.692;9.020;2023-06-26T07:00:56;30.10;99.90
4058;DHT22;2044;48.692;9.020;2023-06-26T07:08:18;31.70;99.90
4058;DHT22;2044;48.692;9.020;2023-06-26T07:10:45;32.30;99.90
4058;DHT22;2044;48.692;9.020;2023-06-26T07:18:06;31.60;99.90
4058;DHT22;2044;48.692;9.020;2023-06-26T07:20:33;33.50;99.90
4058;DHT22;2044;48.692;9.020;2023-06-26T07:23:00;32.90;99.90
4058;DHT22;2044;48.692;9.020;2023-06-26T07:25:28;34.00;99.90
4058;DHT22;2044;48.692;9.020;2023-06-26T07:30:21;34.60;99.90
4058;DHT22;2044;48.692;9.020;2023-06-26T07:32:49;35.10;99.90
4058;DHT22;2044;48.692;9.020;2023-06-26T07:35:16;35.80;98.80
4058;DHT22;2044;48.692;9.020;2023-06-26T07:37:43;35.00;99.90
4058;DHT22;2044;48.692;9.020;2023-06-26T07:40:10;34.70;99.90
4058;DHT22;2044;48.692;9.020;2023-06-26T07:42:39;34.10;99.90
4058;DHT22;2044;48.692;9.020;2023-06-26T07:45:07;35.50;95.30
4058;DHT22;2044;48.692;9.020;2023-06-26T07:47:36;34.90;99.90
4058;DHT22;2044;48.692;9.020;2023-06-26T07:50:03;34.20;99.90
4058;DHT22;2044;48.692;9.020;2023-06-26T07:52:30;34.80;99.90
4058;DHT22;2044;48.692;9.020;2023-06-26T07:54:57;36.70;91.90
4058;DHT22;2044;48.692;9.020;2023-06-26T07:57:24;36.20;99.90
4058;DHT22;2044;48.692;9.020;2023-06-26T07:59:52;33.40;90.00
4058;DHT22;2044;48.692;9.020;2023-06-26T08:02:19;31.40;99.30
4058;DHT22;2044;48.692;9.020;2023-06-26T08:04:46;35.10;86.90
4058;DHT22;2044;48.692;9.020;2023-06-26T08:07:12;34.50;95.90
4058;DHT22;2044;48.692;9.020;2023-06-26T08:17:03;37.10;78.20
4058;DHT22;2044;48.692;9.020;2023-06-26T08:19:29;35.90;71.60
4058;DHT22;2044;48.692;9.020;2023-06-26T08:24:23;36.30;75.20
4058;DHT22;2044;48.692;9.020;2023-06-26T08:26:50;36.30;92.50
4058;DHT22;2044;48.692;9.020;2023-06-26T08:29:17;36.60;91.10
4058;DHT22;2044;48.692;9.020;2023-06-26T08:31:43;37.20;89.50
4058;DHT22;2044;48.692;9.020;2023-06-26T08:34:11;38.20;85.80
4058;DHT22;2044;48.692;9.020;2023-06-26T08:36:38;38.60;64.00
4058;DHT22;2044;48.692;9.020;2023-06-26T08:41:34;38.90;55.30
4058;DHT22;2044;48.692;9.020;2023-06-26T08:44:01;39.60;54.80
4058;DHT22;2044;48.692;9.020;2023-06-26T08:49:01;39.20;45.40
4058;DHT22;2044;48.692;9.020;2023-06-26T08:51:30;40.80;65.80
4058;DHT22;2044;48.692;9.020;2023-06-26T08:54:01;37.40;55.30
4058;DHT22;2044;48.692;9.020;2023-06-26T08:56:32;38.90;44.50
4058;DHT22;2044;48.692;9.020;2023-06-26T09:01:28;40.00;43.30
4058;DHT22;2044;48.692;9.020;2023-06-26T09:03:55;40.40;59.10
4058;DHT22;2044;48.692;9.020;2023-06-26T09:06:21;37.30;29.20
4058;DHT22;2044;48.692;9.020;2023-06-26T09:08:50;37.80;52.70
4058;DHT22;2044;48.692;9.020;2023-06-26T09:11:16;40.20;52.80
4058;DHT22;2044;48.692;9.020;2023-06-26T09:13:43;38.60;47.90
4058;DHT22;2044;48.692;9.020;2023-06-26T09:16:10;36.50;26.10
4058;DHT22;2044;48.692;9.020;2023-06-26T09:18:37;35.50;41.60
4058;DHT22;2044;48.692;9.020;2023-06-26T09:21:07;37.50;46.80
4058;DHT22;2044;48.692;9.020;2023-06-26T09:23:35;39.00;47.60
4058;DHT22;2044;48.692;9.020;2023-06-26T09:26:04;38.10;25.80
4058;DHT22;2044;48.692;9.020;2023-06-26T09:28:32;38.10;42.50
4058;DHT22;2044;48.692;9.020;2023-06-26T09:31:02;38.70;43.90
4058;DHT22;2044;48.692;9.020;2023-06-26T09:33:33;37.00;24.10
4058;DHT22;2044;48.692;9.020;2023-06-26T09:36:03;36.80;23.60
4058;DHT22;2044;48.692;9.020;2023-06-26T09:38:30;37.00;41.10
4058;DHT22;2044;48.692;9.020;2023-06-26T09:40:57;38.20;27.50
4058;DHT22;2044;48.692;9.020;2023-06-26T09:50:47;38.30;26.10
4058;DHT22;2044;48.692;9.020;2023-06-26T09:53:15;37.40;19.80
4058;DHT22;2044;48.692;9.020;2023-06-26T09:55:44;37.30;20.50
4058;DHT22;2044;48.692;9.020;2023-06-26T09:58:12;37.30;20.40
4058;DHT22;2044;48.692;9.020;2023-06-26T10:00:42;36.10;17.40
4058;DHT22;2044;48.692;9.020;2023-06-26T10:03:10;36.00;31.10
4058;DHT22;2044;48.692;9.020;2023-06-26T10:05:37;34.90;16.40
4058;DHT22;2044;48.692;9.020;2023-06-26T10:10:33;34.40;16.50
4058;DHT22;2044;48.692;9.020;2023-06-26T10:13:04;35.10;19.20
4058;DHT22;2044;48.692;9.020;2023-06-26T10:15:35;36.50;22.70
4058;DHT22;2044;48.692;9.020;2023-06-26T10:18:04;36.80;21.60
4058;DHT22;2044;48.692;9.020;2023-06-26T10:20:32;36.80;40.00
4058;DHT22;2044;48.692;9.020;2023-06-26T10:25:28;36.10;18.20
4058;DHT22;2044;48.692;9.020;2023-06-26T10:27:59;36.20;19.00
4058;DHT22;2044;48.692;9.020;2023-06-26T10:30:30;35.90;23.10
4058;DHT22;2044;48.692;9.020;2023-06-26T10:32:59;35.90;23.40
4058;DHT22;2044;48.692;9.020;2023-06-26T10:35:30;35.80;24.50
4058;DHT22;2044;48.692;9.020;2023-06-26T10:38:01;35.80;25.20
4058;DHT22;2044;48.692;9.020;2023-06-26T10:40:40;36.20;26.00
4058;DHT22;2044;48.692;9.020;2023-06-26T10:43:08;35.20;26.60
4058;DHT22;2044;48.692;9.020;2023-06-26T10:48:03;33.60;27.80
4058;DHT22;2044;48.692;9.020;2023-06-26T10:50:32;33.10;28.00
4058;DHT22;2044;48.692;9.020;2023-06-26T10:53:15;33.10;45.80
4058;DHT22;2044;48.692;9.020;2023-06-26T10:55:49;33.80;30.00
4058;DHT22;2044;48.692;9.020;2023-06-26T10:58:40;33.90;31.20
4058;DHT22;2044;48.692;9.020;2023-06-26T11:01:23;34.60;29.80
4058;DHT22;2044;48.692;9.020;2023-06-26T11:04:03;34.60;47.80
4058;DHT22;2044;48.692;9.020;2023-06-26T11:06:32;34.30;29.60
4058;DHT22;2044;48.692;9.020;2023-06-26T11:09:06;34.60;49.70
4058;DHT22;2044;48.692;9.020;2023-06-26T11:11:55;33.70;45.20
4058;DHT22;2044;48.692;9.020;2023-06-26T11:16:53;33.40;28.00
4058;DHT22;2044;48.692;9.020;2023-06-26T11:19:22;33.80;48.00
4058;DHT22;2044;48.692;9.020;2023-06-26T11:24:17;34.50;30.10
4058;DHT22;2044;48.692;9.020;2023-06-26T11:26:45;34.40;29.00
4058;DHT22;2044;48.692;9.020;2023-06-26T11:31:40;33.80;29.80
4058;DHT22;2044;48.692;9.020;2023-06-26T11:34:08;34.00;49.20
4058;DHT22;2044;48.692;9.020;2023-06-26T11:39:06;33.60;31.20
4058;DHT22;2044;48.692;9.020;2023-06-26T11:41:34;34.30;35.60
4058;DHT22;2044;48.692;9.020;2023-06-26T11:44:01;34.30;52.90
4058;DHT22;2044;48.692;9.020;2023-06-26T11:48:55;34.80;35.10
4058;DHT22;2044;48.692;9.020;2023-06-26T11:53:49;34.60;34.70
4058;DHT22;2044;48.692;9.020;2023-06-26T11:56:24;34.80;37.50
4058;DHT22;2044;48.692;9.020;2023-06-26T11:58:58;35.30;56.20
4058;DHT22;2044;48.692;9.020;2023-06-26T12:01:27;35.30;39.80
4058;DHT22;2044;48.692;9.020;2023-06-26T12:03:59;35.10;53.70
4058;DHT22;2044;48.692;9.020;2023-06-26T12:06:27;34.60;33.50
4058;DHT22;2044;48.692;9.020;2023-06-26T12:08:54;35.00;56.80
4058;DHT22;2044;48.692;9.020;2023-06-26T12:16:19;34.20;38.20
4058;DHT22;2044;48.692;9.020;2023-06-26T12:18:46;33.90;58.10
4058;DHT22;2044;48.692;9.020;2023-06-26T12:21:28;34.00;43.00
4058;DHT22;2044;48.692;9.020;2023-06-26T12:23:58;33.70;57.30
4058;DHT22;2044;48.692;9.020;2023-06-26T12:26:27;34.20;41.10
4058;DHT22;2044;48.692;9.020;2023-06-26T12:29:01;34.00;42.20
4058;DHT22;2044;48.692;9.020;2023-06-26T12:31:29;34.00;43.10
4058;DHT22;2044;48.692;9.020;2023-06-26T12:33:56;33.90;63.00
4058;DHT22;2044;48.692;9.020;2023-06-26T12:36:23;34.10;44.50
4058;DHT22;2044;48.692;9.020;2023-06-26T12:38:52;34.10;47.20
4058;DHT22;2044;48.692;9.020;2023-06-26T12:41:19;35.30;66.10
4058;DHT22;2044;48.692;9.020;2023-06-26T12:46:14;33.90;46.00
4058;DHT22;2044;48.692;9.020;2023-06-26T12:48:42;33.80;48.00
4058;DHT22;2044;48.692;9.020;2023-06-26T12:51:12;34.20;69.10
4058;DHT22;2044;48.692;9.020;2023-06-26T12:53:39;33.80;50.00
4058;DHT22;2044;48.692;9.020;2023-06-26T13:01:04;34.20;48.90
4058;DHT22;2044;48.692;9.020;2023-06-26T13:03:33;34.60;67.30
4058;DHT22;2044;48.692;9.020;2023-06-26T13:05:59;34.70;47.10
4058;DHT22;2044;48.692;9.020;2023-06-26T13:13:21;34.10;45.50
4058;DHT22;2044;48.692;9.020;2023-06-26T13:15:49;33.80;44.70
4058;DHT22;2044;48.692;9.020;2023-06-26T13:18:17;34.30;67.90
4058;DHT22;2044;48.692;9.020;2023-06-26T13:25:38;33.70;43.00
4058;DHT22;2044;48.692;9.020;2023-06-26T13:28:05;33.60;43.00
4058;DHT22;2044;48.692;9.020;2023-06-26T13:30:31;33.10;43.10
4058;DHT22;2044;48.692;9.020;2023-06-26T13:40:21;33.60;41.90
4058;DHT22;2044;48.692;9.020;2023-06-26T13:47:42;33.80;41.70
4058;DHT22;2044;48.692;9.020;2023-06-26T13:52:38;30.80;36.90
4058;DHT22;2044;48.692;9.020;2023-06-26T13:55:05;33.30;37.30
4058;DHT22;2044;48.692;9.020;2023-06-26T13:57:32;33.00;56.30
4058;DHT22;2044;48.692;9.020;2023-06-26T14:04:55;33.40;36.80
4058;DHT22;2044;48.692;9.020;2023-06-26T14:09:51;33.50;36.40
4058;DHT22;2044;48.692;9.020;2023-06-26T14:12:18;34.90;57.80
4058;DHT22;2044;48.692;9.020;2023-06-26T14:22:08;31.70;28.50
4058;DHT22;2044;48.692;9.020;2023-06-26T14:27:04;32.30;29.60
4058;DHT22;2044;48.692;9.020;2023-06-26T14:34:25;31.70;30.40
4058;DHT22;2044;48.692;9.020;2023-06-26T14:44:15;31.80;28.30
4058;DHT22;2044;48.692;9.020;2023-06-26T14:54:05;31.90;30.30
4058;DHT22;2044;48.692;9.020;2023-06-26T15:01:27;31.30;30.00
4058;DHT22;2044;48.692;9.020;2023-06-26T15:11:17;30.80;30.20
4058;DHT22;2044;48.692;9.020;2023-06-26T15:23:34;30.00;34.30
4058;DHT22;2044;48.692;9.020;2023-06-26T15:30:55;30.50;31.10
4058;DHT22;2044;48.692;9.020;2023-06-26T15:35:50;29.80;32.20
4058;DHT22;2044;48.692;9.020;2023-06-26T15:53:02;28.30;35.30
4058;DHT22;2044;48.692;9.020;2023-06-26T15:57:56;27.60;36.30
4058;DHT22;2044;48.692;9.020;2023-06-26T16:00:23;27.60;34.80
4058;DHT22;2044;48.692;9.020;2023-06-26T16:02:50;27.80;38.00
4058;DHT22;2044;48.692;9.020;2023-06-26T16:15:07;27.00;41.90
4058;DHT22;2044;48.692;9.020;2023-06-26T16:27:23;26.70;41.00
4058;DHT22;2044;48.692;9.020;2023-06-26T16:42:06;27.20;36.90
4058;DHT22;2044;48.692;9.020;2023-06-26T17:06:40;26.80;25.70
4058;DHT22;2044;48.692;9.020;2023-06-26T17:18:59;25.70;18.90
4058;DHT22;2044;48.692;9.020;2023-06-26T18:17:55;23.90;20.90
4058;DHT22;2044;48.692;9.020;2023-06-26T18:27:47;23.30;19.10
4058;DHT22;2044;48.692;9.020;2023-06-26T18:30:14;23.40;21.80
4058;DHT22;2044;48.692;9.020;2023-06-26T18:32:42;23.20;19.90
4058;DHT22;2044;48.692;9.020;2023-06-26T18:42:39;22.30;24.30
4058;DHT22;2044;48.692;9.020;2023-06-26T19:14:37;20.30;33.40
4058;DHT22;2044;48.692;9.020;2023-06-26T20:11:09;18.60;45.30
4058;DHT22;2044;48.692;9.020;2023-06-26T20:25:51;18.20;58.50
4058;DHT22;2044;48.692;9.020;2023-06-26T20:30:47;17.90;70.50
4058;DHT22;2044;48.692;9.020;2023-06-26T20:40:37;17.60;79.80
4058;DHT22;2044;48.692;9.020;2023-06-26T20:43:05;17.40;82.90
4058;DHT22;2044;48.692;9.020;2023-06-26T20:50:29;17.40;92.50
4058;DHT22;2044;48.692;9.020;2023-06-26T20:52:58;17.50;86.20
4058;DHT22;2044;48.692;9.020;2023-06-26T20:57:53;17.50;97.20
4058;DHT22;2044;48.692;9.020;2023-06-26T21:00:21;17.30;99.40
4058;DHT22;2044;48.692;9.020;2023-06-26T21:12:39;18.00;98.00
4058;DHT22;2044;48.692;9.020;2023-06-26T21:42:08;17.70;99.90
4058;DHT22;2044;48.692;9.020;2023-06-26T21:44:35;17.60;99.90
4058;DHT22;2044;48.692;9.020;2023-06-26T21:47:02;17.70;99.90
4058;DHT22;2044;48.692;9.020;2023-06-26T21:51:55;17.60;99.90
4058;DHT22;2044;48.692;9.020;2023-06-26T21:54:23;17.50;99.90
4058;DHT22;2044;48.692;9.020;2023-06-26T21:59:17;17.50;99.90
4058;DHT22;2044;48.692;9.020;2023-06-26T22:01:44;17.60;99.90
4058;DHT22;2044;48.692;9.020;2023-06-26T22:06:37;17.40;99.90
4058;DHT22;2044;48.692;9.020;2023-06-26T22:09:05;17.40;99.90
4058;DHT22;2044;48.692;9.020;2023-06-26T22:11:33;17.60;99.90
4058;DHT22;2044;48.692;9.020;2023-06-26T22:14:00;17.30;99.90
4058;DHT22;2044;48.692;9.020;2023-06-26T22:16:27;17.60;99.90
4058;DHT22;2044;48.692;9.020;2023-06-26T22:18:53;17.70;99.90
4058;DHT22;2044;48.692;9.020;2023-06-26T22:21:20;17.60;99.90
4058;DHT22;2044;48.692;9.020;2023-06-26T22:23:47;17.60;99.90
4058;DHT22;2044;48.692;9.020;2023-06-26T22:28:42;17.40;99.90
4058;DHT22;2044;48.692;9.020;2023-06-26T22:31:08;17.40;99.90
4058;DHT22;2044;48.692;9.020;2023-06-26T22:33:35;17.40;99.90
4058;DHT22;2044;48.692;9.020;2023-06-26T22:43:23;17.30;99.90
4058;DHT22;2044;48.692;9.020;2023-06-26T22:58:10;16.90;99.90
4058;DHT22;2044;48.692;9.020;2023-06-26T23:00:36;17.00;99.90
4058;DHT22;2044;48.692;9.020;2023-06-26T23:03:05;16.90;99.90
4058;DHT22;2044;48.692;9.020;2023-06-26T23:05:32;17.00;99.90
4058;DHT22;2044;48.692;9.020;2023-06-26T23:10:27;17.00;99.90
4058;DHT22;2044;48.692;9.020;2023-06-26T23:12:54;17.30;99.90
4058;DHT22;2044;48.692;9.020;2023-06-26T23:17:48;16.90;99.90
4058;DHT22;2044;48.692;9.020;2023-06-26T23:20:16;16.90;99.90
4058;DHT22;2044;48.692;9.020;2023-06-26T23:22:43;16.90;99.90
4058;DHT22;2044;48.692;9.020;2023-06-26T23:25:10;16.70;99.90
4058;DHT22;2044;48.692;9.020;2023-06-26T23:27:37;16.50;99.90
4058;DHT22;2044;48.692;9.020;2023-06-26T23:30:07;16.50;99.90
4058;DHT22;2044;48.692;9.020;2023-06-26T23:32:36;16.20;99.90
4058;DHT22;2044;48.692;9.020;2023-06-26T23:35:02;16.40;99.90
4058;DHT22;2044;48.692;9.020;2023-06-26T23:37:32;16.40;99.90
4058;DHT22;2044;48.692;9.020;2023-06-26T23:39:58;16.40;99.90
4058;DHT22;2044;48.692;9.020;2023-06-26T23:42:25;16.50;99.90
4058;DHT22;2044;48.692;9.020;2023-06-26T23:44:52;16.50;99.90
4058;DHT22;2044;48.692;9.020;2023-06-26T23:47:19;16.30;99.90
4058;DHT22;2044;48.692;9.020;2023-06-26T23:49:46;16.20;99.90
4058;DHT22;2044;48.692;9.020;2023-06-26T23:52:13;16.30;99.90
4058;DHT22;2044;48.692;9.020;2023-06-26T23:54:41;16.10;99.90
4058;DHT22;2044;48.692;9.020;2023-06-26T23:57:07;16.00;99.90
